Cross Village, Michigan
Current Conditions -  °F | °C
As of 11:54 AM on Tuesday 21 Oct 2014 (Local Time) from KPLN Reporting Station
Few Clouds Few Clouds  
Wind Chill: 37°   Ceiling: Unl
Heat Index: 44°   Visibility: 10mi
Dew Point: 31°   Wind: 14mph
Humidity: 60%   Direction: 40°NE
Pressure: 30.2"   Gusts: NA
Location:  45.64°N, 85.04°W
Report Text: KPLN 211554Z AUTO 04012KT 10SM FEW027 07/M01 A3020 RMK AO2 SLP233 T00671006
Loading
Personal Weather Stations






























Interactive Weather Map
Tropical Storm Tracking
New forecast layout! Learn more

10-Day Weather Forecast

Advertisements
Track Severe Weather on mobile